Time;durP1;ratioP1;P1;durP2;ratioP2;P2;SDS_P1;SDS_P2;PMS_P1;PMS_P2;Temp;Humidity;BMP_temperature;BMP_pressure;BME280_temperature;BME280_humidity;BME280_pressure;Samples;Min_cycle;Max_cycle;Signal;HPM_P1;HPM_P2
2021/12/04 00:01:24;;;;;;;15.90;12.93;;;5.60;99.90;;;;;;6114699;23;20539;-84
2021/12/04 00:03:53;;;;;;;16.17;12.10;;;5.50;99.90;;;;;;6114569;23;20690;-86
2021/12/04 00:06:26;;;;;;;18.17;12.63;;;5.70;99.90;;;;;;6114090;23;20590;-83
2021/12/04 00:08:55;;;;;;;17.23;13.70;;;5.60;99.90;;;;;;6113519;23;20559;-86
2021/12/04 00:11:21;;;;;;;17.50;13.23;;;5.60;99.90;;;;;;6089006;23;20619;-83
2021/12/04 00:13:49;;;;;;;18.93;12.83;;;5.60;99.90;;;;;;6113659;23;20555;-82
2021/12/04 00:16:22;;;;;;;18.70;13.03;;;5.60;99.90;;;;;;6112712;23;20731;-84
2021/12/04 00:18:51;;;;;;;19.30;13.27;;;5.60;99.90;;;;;;6089074;23;20702;-82
2021/12/04 00:21:17;;;;;;;15.83;11.60;;;5.60;99.90;;;;;;6113055;23;20583;-83
2021/12/04 00:23:42;;;;;;;19.03;14.40;;;5.60;99.90;;;;;;6113219;23;20569;-83
2021/12/04 00:26:08;;;;;;;17.77;13.33;;;5.60;99.90;;;;;;6112146;23;20659;-84
2021/12/04 00:28:41;;;;;;;19.93;14.40;;;5.60;99.90;;;;;;6112740;23;20194;-84
2021/12/04 00:31:12;;;;;;;17.80;12.97;;;5.90;99.90;;;;;;6112584;23;20156;-85
2021/12/04 00:33:45;;;;;;;19.03;14.03;;;5.60;99.90;;;;;;6114069;23;20539;-85
2021/12/04 00:50:26;;;;;;;23.37;15.07;;;5.80;99.90;;;;;;6110341;23;20519;-82
2021/12/04 00:52:55;;;;;;;22.13;15.60;;;5.60;99.90;;;;;;6109708;23;20547;-82
2021/12/04 00:55:21;;;;;;;21.80;14.00;;;5.60;99.90;;;;;;6109090;23;20671;-84
2021/12/04 00:57:46;;;;;;;23.27;16.73;;;5.50;99.90;;;;;;6108407;23;20598;-83
2021/12/04 01:00:13;;;;;;;23.87;15.50;;;5.50;99.90;;;;;;6107857;23;20211;-84
2021/12/04 01:02:38;;;;;;;23.37;16.07;;;5.50;99.90;;;;;;6083682;23;20193;-82
2021/12/04 01:05:06;;;;;;;20.93;15.20;;;5.50;99.90;;;;;;6082747;23;21092;-83
2021/12/04 01:07:35;;;;;;;21.77;15.50;;;5.60;99.90;;;;;;6080585;23;20206;-82
2021/12/04 01:10:01;;;;;;;20.53;14.77;;;5.60;99.90;;;;;;6097318;23;20532;-82
2021/12/04 01:12:27;;;;;;;22.87;15.83;;;5.60;99.90;;;;;;6104839;23;20539;-82
2021/12/04 01:15:09;;;;;;;20.23;14.93;;;5.70;99.90;;;;;;6087513;23;20618;-83
2021/12/04 01:17:40;;;;;;;21.37;14.90;;;5.70;99.90;;;;;;6111787;23;20206;-82
2021/12/04 01:20:11;;;;;;;19.97;13.67;;;5.70;99.90;;;;;;6110395;23;20499;-82
2021/12/04 01:22:41;;;;;;;22.20;15.67;;;5.70;99.90;;;;;;6110995;23;20587;-82
2021/12/04 01:25:10;;;;;;;21.37;14.93;;;5.70;99.90;;;;;;6111199;23;20595;-80
2021/12/04 01:27:37;;;;;;;22.40;15.40;;;5.70;99.90;;;;;;6109659;23;20643;-81
2021/12/04 01:30:07;;;;;;;21.83;15.40;;;5.60;99.90;;;;;;6083841;23;20567;-82
2021/12/04 01:32:33;;;;;;;19.40;14.70;;;5.60;99.90;;;;;;6085459;23;20654;-81
2021/12/04 01:34:59;;;;;;;20.90;14.53;;;5.60;99.90;;;;;;6086149;23;20563;-80
2021/12/04 01:37:27;;;;;;;19.83;13.70;;;5.60;99.90;;;;;;6111166;23;20591;-81
2021/12/04 01:39:53;;;;;;;20.10;14.20;;;6.00;99.90;;;;;;6110319;23;20194;-80
2021/12/04 01:42:20;;;;;;;19.53;14.03;;;5.70;99.90;;;;;;6110720;23;20637;-81
2021/12/04 01:44:52;;;;;;;19.37;14.33;;;5.70;99.90;;;;;;6085691;23;20275;-81
2021/12/04 01:47:23;;;;;;;20.80;13.27;;;5.70;99.90;;;;;;6110697;23;20587;-83
2021/12/04 01:49:55;;;;;;;18.87;13.50;;;5.70;99.90;;;;;;6087204;23;21211;-80
2021/12/04 01:52:36;;;;;;;20.77;13.17;;;5.70;99.90;;;;;;6086962;23;20652;-83
2021/12/04 01:55:08;;;;;;;19.90;14.00;;;5.50;99.90;;;;;;6112467;23;20495;-82
2021/12/04 01:57:40;;;;;;;17.80;13.43;;;5.70;99.90;;;;;;6083140;23;20607;-84
2021/12/04 02:00:12;;;;;;;24.43;14.30;;;6.00;99.90;;;;;;6086254;23;20579;-84
2021/12/04 02:02:49;;;;;;;18.30;13.37;;;5.70;99.90;;;;;;6111303;23;20639;-83
2021/12/04 02:05:16;;;;;;;18.67;14.13;;;5.70;99.90;;;;;;6112889;23;20547;-82
2021/12/04 02:08:01;;;;;;;19.20;14.00;;;5.70;99.90;;;;;;6109326;23;20722;-82
2021/12/04 02:10:27;;;;;;;19.77;13.90;;;5.70;99.90;;;;;;6111677;23;20523;-81
2021/12/04 02:12:52;;;;;;;18.20;12.97;;;5.70;99.90;;;;;;6111050;23;20607;-81
2021/12/04 02:15:21;;;;;;;18.80;13.03;;;6.00;99.90;;;;;;6085257;23;20214;-82
2021/12/04 02:17:50;;;;;;;18.23;13.60;;;5.80;99.90;;;;;;6110825;23;20261;-84
2021/12/04 02:20:27;;;;;;;18.23;13.37;;;5.70;99.90;;;;;;6112896;23;20542;-83
2021/12/04 02:22:56;;;;;;;18.40;13.43;;;5.70;99.90;;;;;;6112395;23;20576;-81
2021/12/04 02:25:25;;;;;;;19.77;13.37;;;5.60;99.90;;;;;;6112729;23;20551;-81
2021/12/04 02:27:51;;;;;;;22.23;14.73;;;5.60;99.90;;;;;;6111378;23;20626;-81
2021/12/04 02:30:32;;;;;;;20.17;13.93;;;5.60;99.90;;;;;;6087888;23;20571;-81
2021/12/04 02:32:58;;;;;;;18.80;12.90;;;5.50;99.90;;;;;;6086657;23;20562;-81
2021/12/04 02:35:29;;;;;;;20.27;13.53;;;5.50;99.90;;;;;;6113800;23;20567;-81
2021/12/04 02:37:58;;;;;;;21.87;14.20;;;5.50;99.90;;;;;;6110579;23;20607;-80
2021/12/04 02:40:26;;;;;;;18.70;13.37;;;5.60;99.90;;;;;;6111085;23;20559;-80
2021/12/04 02:42:52;;;;;;;18.40;14.80;;;5.70;99.90;;;;;;6112892;23;20589;-82
2021/12/04 02:45:18;;;;;;;19.77;13.47;;;5.70;99.90;;;;;;6111705;23;20566;-83
2021/12/04 02:47:46;;;;;;;19.70;13.80;;;5.70;99.90;;;;;;6111959;23;20272;-81
2021/12/04 02:50:17;;;;;;;19.57;14.70;;;5.70;99.90;;;;;;6086704;23;20571;-81
2021/12/04 02:52:48;;;;;;;19.53;13.73;;;5.70;99.90;;;;;;6112679;23;20547;-81
2021/12/04 02:55:19;;;;;;;19.37;14.17;;;5.80;99.90;;;;;;6112238;23;20558;-80
2021/12/04 02:57:50;;;;;;;20.30;14.63;;;5.80;99.90;;;;;;6111652;23;20601;-80
2021/12/04 03:00:19;;;;;;;20.73;15.43;;;5.80;99.90;;;;;;6111752;23;20523;-82
2021/12/04 03:02:47;;;;;;;18.90;14.63;;;5.90;99.90;;;;;;6111965;23;20583;-82
2021/12/04 03:05:23;;;;;;;20.93;15.17;;;5.90;99.90;;;;;;6086661;23;20551;-82
2021/12/04 03:08:01;;;;;;;22.50;15.63;;;5.90;99.90;;;;;;6111029;23;20586;-80
2021/12/04 03:10:27;;;;;;;23.77;16.40;;;5.90;99.90;;;;;;6112161;23;20516;-81
2021/12/04 03:12:53;;;;;;;20.07;14.50;;;5.80;99.90;;;;;;6112893;23;20607;-81
2021/12/04 03:15:22;;;;;;;23.83;16.47;;;5.80;99.90;;;;;;6087052;23;20186;-81
2021/12/04 03:17:49;;;;;;;22.50;15.50;;;5.80;99.90;;;;;;6084169;23;20602;-82
2021/12/04 03:20:15;;;;;;;23.23;15.97;;;5.80;99.90;;;;;;6084034;23;20685;-82
2021/12/04 03:22:43;;;;;;;25.00;16.27;;;5.70;99.90;;;;;;6084897;23;20885;-85
2021/12/04 03:25:10;;;;;;;22.40;15.87;;;5.70;99.90;;;;;;6112913;23;20531;-85
2021/12/04 03:27:37;;;;;;;23.60;15.00;;;5.70;99.90;;;;;;6086413;23;21214;-85
2021/12/04 03:30:20;;;;;;;26.03;17.20;;;5.70;99.90;;;;;;6111901;23;20531;-84
2021/12/04 03:41:07;;;;;;;27.60;16.57;;;5.80;99.90;;;;;;6112662;23;20636;-82
2021/12/04 03:43:43;;;;;;;24.33;16.33;;;5.70;99.90;;;;;;6113442;23;20558;-81
2021/12/04 03:46:32;;;;;;;26.20;18.17;;;5.70;99.90;;;;;;6085457;23;20610;-81
2021/12/04 03:49:09;;;;;;;26.20;17.20;;;5.70;99.90;;;;;;6112575;23;20591;-83
2021/12/04 03:51:37;;;;;;;27.47;18.20;;;5.70;99.90;;;;;;6087680;23;20597;-84
2021/12/04 03:54:12;;;;;;;27.40;17.60;;;5.60;99.90;;;;;;6089335;23;20565;-84
2021/12/04 03:56:49;;;;;;;29.00;19.37;;;5.60;99.90;;;;;;6112403;23;20610;-83
2021/12/04 03:59:20;;;;;;;28.93;18.80;;;5.60;99.90;;;;;;6111435;23;20608;-83
2021/12/04 04:01:50;;;;;;;29.07;19.57;;;5.10;99.90;;;;;;6113172;23;20571;-83
2021/12/04 04:04:16;;;;;;;28.70;18.57;;;5.50;99.90;;;;;;6112636;23;20543;-84
2021/12/04 04:06:49;;;;;;;29.63;18.80;;;5.50;99.90;;;;;;6109717;23;20867;-83
2021/12/04 04:09:17;;;;;;;31.80;19.93;;;5.40;99.90;;;;;;6110877;23;20178;-83
2021/12/04 04:11:47;;;;;;;32.20;19.07;;;5.50;99.90;;;;;;6111192;23;20610;-82
2021/12/04 04:14:13;;;;;;;30.37;19.07;;;5.40;99.90;;;;;;6086034;23;20565;-83
2021/12/04 04:16:52;;;;;;;27.57;19.80;;;5.40;99.90;;;;;;6095076;23;20599;-81
2021/12/04 04:19:18;;;;;;;31.90;21.43;;;5.50;99.90;;;;;;6112978;23;20567;-83
2021/12/04 04:21:47;;;;;;;30.63;19.13;;;5.50;99.90;;;;;;6113577;23;20575;-85
2021/12/04 04:24:15;;;;;;;31.17;19.03;;;5.50;99.90;;;;;;6112275;23;20725;-81
2021/12/04 04:26:43;;;;;;;32.67;19.80;;;5.50;99.90;;;;;;6073035;23;20619;-83
2021/12/04 04:29:09;;;;;;;31.60;21.67;;;5.50;99.90;;;;;;6057561;23;20608;-80
2021/12/04 04:31:36;;;;;;;35.07;19.40;;;5.80;99.90;;;;;;6080480;23;20588;-80
2021/12/04 04:34:08;;;;;;;28.80;19.40;;;5.60;99.90;;;;;;6057855;23;20560;-81
2021/12/04 04:36:47;;;;;;;28.70;19.90;;;5.60;99.90;;;;;;6081830;23;20592;-82
2021/12/04 05:13:04;;;;;;;29.13;18.63;;;5.80;99.90;;;;;;6097252;23;20617;-81
2021/12/04 05:21:03;;;;;;;27.80;17.57;;;5.80;99.90;;;;;;6121777;23;20643;-83
2021/12/04 05:23:41;;;;;;;28.33;17.33;;;5.80;99.90;;;;;;6109274;23;20590;-81
2021/12/04 05:26:08;;;;;;;30.40;17.97;;;5.70;99.90;;;;;;6084485;23;20703;-81
2021/12/04 05:28:39;;;;;;;26.77;18.00;;;5.80;99.90;;;;;;6110889;23;20591;-82
2021/12/04 05:31:10;;;;;;;25.13;17.73;;;5.70;99.90;;;;;;6086858;23;21148;-81
2021/12/04 05:34:00;;;;;;;24.93;17.40;;;5.60;99.90;;;;;;6114097;23;20524;-80
2021/12/04 05:36:33;;;;;;;27.50;17.83;;;5.60;99.90;;;;;;6093193;23;20602;-81
2021/12/04 05:39:01;;;;;;;31.20;18.00;;;5.70;99.90;;;;;;6113922;23;20602;-83
2021/12/04 05:41:36;;;;;;;28.30;18.40;;;5.80;99.90;;;;;;6113603;23;20547;-82
2021/12/04 05:44:07;;;;;;;27.67;18.90;;;5.80;99.90;;;;;;6113491;23;20583;-81
2021/12/04 05:47:04;;;;;;;25.43;16.80;;;5.80;99.90;;;;;;6111622;23;20602;-81
2021/12/04 05:52:22;;;;;;;25.70;17.30;;;5.90;99.90;;;;;;6114198;23;20543;-82
2021/12/04 05:57:35;;;;;;;24.83;17.13;;;5.90;99.90;;;;;;6108679;23;20605;-82
2021/12/04 06:00:01;;;;;;;30.30;18.43;;;5.90;99.90;;;;;;6084418;23;20987;-81
2021/12/04 06:02:26;;;;;;;25.00;17.23;;;5.90;99.90;;;;;;6111081;23;20614;-81
2021/12/04 06:04:54;;;;;;;24.93;16.90;;;5.80;99.90;;;;;;6087021;23;20587;-83
2021/12/04 06:07:20;;;;;;;28.87;18.33;;;5.80;99.90;;;;;;6110377;23;20226;-83
2021/12/04 06:09:46;;;;;;;26.37;17.83;;;6.10;99.90;;;;;;6110129;23;20583;-83
2021/12/04 06:12:14;;;;;;;26.43;17.10;;;5.70;99.90;;;;;;6086343;23;20166;-83
2021/12/04 06:14:45;;;;;;;27.63;17.43;;;6.10;99.90;;;;;;6108842;23;20210;-82
2021/12/04 06:17:16;;;;;;;26.97;17.83;;;5.70;99.90;;;;;;6083210;23;20599;-81
2021/12/04 06:22:40;;;;;;;27.47;18.37;;;5.70;99.90;;;;;;6111556;23;20617;-80
2021/12/04 06:25:08;;;;;;;25.73;17.37;;;5.70;99.90;;;;;;6111214;23;20507;-81
2021/12/04 06:27:38;;;;;;;28.37;18.40;;;5.80;99.90;;;;;;6108553;23;20601;-80
2021/12/04 06:30:09;;;;;;;28.40;18.90;;;5.70;99.90;;;;;;6110978;23;20543;-80
2021/12/04 06:32:36;;;;;;;29.57;19.47;;;5.70;99.90;;;;;;6109659;23;20669;-81
2021/12/04 06:35:04;;;;;;;32.07;18.63;;;5.70;99.90;;;;;;6111324;23;20551;-79
2021/12/04 06:37:39;;;;;;;27.10;17.70;;;5.70;99.90;;;;;;6110347;23;20666;-79
2021/12/04 06:40:23;;;;;;;29.27;17.23;;;5.60;99.90;;;;;;6086103;23;20563;-80
2021/12/04 06:42:59;;;;;;;;;;;;;;;;;;;;;
2021/12/04 06:45:28;;;;;;;25.73;16.60;;;5.60;99.90;;;;;;6109760;23;20508;-81
2021/12/04 06:48:17;;;;;;;24.33;15.70;;;5.60;99.90;;;;;;6105820;23;20661;-79
2021/12/04 06:53:25;;;;;;;24.63;16.27;;;5.60;99.90;;;;;;6112122;23;20546;-79
2021/12/04 06:55:54;;;;;;;23.83;16.50;;;5.60;99.90;;;;;;6111256;23;20507;-80
2021/12/04 06:58:22;;;;;;;23.73;16.60;;;5.60;99.90;;;;;;6109393;23;21021;-80
2021/12/04 07:00:48;;;;;;;24.83;15.60;;;5.60;99.90;;;;;;6085809;23;20855;-81
2021/12/04 07:03:18;;;;;;;22.93;16.17;;;5.70;99.90;;;;;;6082996;23;20617;-83
2021/12/04 07:05:49;;;;;;;24.53;16.30;;;5.70;99.90;;;;;;6101949;23;20631;-81
2021/12/04 07:08:15;;;;;;;23.17;15.77;;;5.70;99.90;;;;;;6085835;23;20695;-79
2021/12/04 07:10:41;;;;;;;26.23;16.60;;;5.60;99.90;;;;;;6112508;23;20570;-81
2021/12/04 07:13:06;;;;;;;23.40;15.97;;;5.70;99.90;;;;;;6110222;23;20555;-79
2021/12/04 07:15:33;;;;;;;23.33;15.10;;;5.70;99.90;;;;;;6110417;23;20166;-81
2021/12/04 07:18:00;;;;;;;19.33;14.10;;;5.70;99.90;;;;;;6110679;23;20218;-80
2021/12/04 07:20:27;;;;;;;21.77;14.20;;;6.10;99.90;;;;;;6111176;23;21048;-81
2021/12/04 07:22:56;;;;;;;20.40;14.97;;;5.80;99.90;;;;;;6109617;23;21105;-80
2021/12/04 07:25:22;;;;;;;19.90;13.37;;;5.80;99.90;;;;;;6110553;23;20625;-79
2021/12/04 07:27:50;;;;;;;21.50;13.10;;;6.20;99.90;;;;;;6109140;23;20768;-79
2021/12/04 07:30:17;;;;;;;22.43;13.40;;;5.90;99.90;;;;;;6109791;23;20508;-80
2021/12/04 07:32:42;;;;;;;17.70;12.90;;;5.90;99.90;;;;;;6109542;23;20552;-80
2021/12/04 07:35:15;;;;;;;17.67;12.00;;;5.90;99.90;;;;;;6104580;23;20555;-78
2021/12/04 07:37:45;;;;;;;15.40;11.57;;;5.90;99.90;;;;;;6085420;23;20202;-84
2021/12/04 07:40:20;;;;;;;19.13;12.07;;;5.90;99.90;;;;;;6086008;23;20567;-84
2021/12/04 07:42:46;;;;;;;18.50;12.40;;;5.40;99.90;;;;;;6110854;23;20621;-84
2021/12/04 07:45:12;;;;;;;17.40;12.80;;;6.00;99.90;;;;;;6085394;23;20551;-86
2021/12/04 07:47:37;;;;;;;17.90;13.13;;;5.90;99.90;;;;;;6110922;23;20230;-85
2021/12/04 07:50:09;;;;;;;16.47;12.43;;;5.80;99.90;;;;;;6111614;23;20529;-82
2021/12/04 07:52:47;;;;;;;17.33;12.13;;;5.90;99.90;;;;;;6088739;23;20163;-84
2021/12/04 07:55:13;;;;;;;18.30;13.17;;;5.90;99.90;;;;;;6085644;23;20578;-82
2021/12/04 07:57:39;;;;;;;18.37;13.00;;;6.00;99.90;;;;;;6109217;23;20587;-80
2021/12/04 08:00:08;;;;;;;17.63;13.80;;;6.00;99.90;;;;;;6111064;23;20552;-83
2021/12/04 08:02:38;;;;;;;17.40;12.93;;;6.00;99.90;;;;;;6087914;23;20201;-84
2021/12/04 08:05:10;;;;;;;19.47;12.70;;;6.10;99.90;;;;;;6111984;23;20535;-83
2021/12/04 08:07:38;;;;;;;16.30;12.70;;;6.10;99.90;;;;;;6111994;23;20651;-82
2021/12/04 08:10:15;;;;;;;18.17;13.43;;;6.10;99.90;;;;;;6112287;23;20541;-84
2021/12/04 08:12:41;;;;;;;17.13;12.97;;;6.10;99.90;;;;;;6112418;23;20542;-84
2021/12/04 08:15:09;;;;;;;18.77;12.47;;;6.10;99.90;;;;;;6086441;23;20586;-81
2021/12/04 08:17:38;;;;;;;17.70;12.90;;;6.20;99.90;;;;;;6111532;23;20221;-81
2021/12/04 08:20:06;;;;;;;18.03;12.50;;;6.20;99.90;;;;;;6113204;23;20675;-79
2021/12/04 08:22:33;;;;;;;17.43;12.90;;;6.20;99.90;;;;;;6108550;23;20582;-83
2021/12/04 08:24:59;;;;;;;19.80;12.77;;;6.20;99.90;;;;;;6085137;23;20555;-79
2021/12/04 08:27:25;;;;;;;16.17;12.10;;;6.10;99.90;;;;;;6101092;23;20799;-83
2021/12/04 08:29:53;;;;;;;16.77;11.80;;;6.00;99.90;;;;;;6105244;23;20305;-79
2021/12/04 08:32:22;;;;;;;16.33;11.90;;;6.10;99.90;;;;;;6103146;23;20159;-80
2021/12/04 08:34:50;;;;;;;17.20;12.90;;;6.10;99.90;;;;;;6110574;23;20539;-81
2021/12/04 08:37:16;;;;;;;17.20;12.27;;;6.50;99.90;;;;;;6082966;23;20647;-82
2021/12/04 08:39:42;;;;;;;16.73;12.80;;;6.10;99.90;;;;;;6108805;23;20598;-78
2021/12/04 08:42:08;;;;;;;18.90;12.93;;;6.00;99.90;;;;;;6080786;23;20361;-77
2021/12/04 08:44:33;;;;;;;17.90;13.47;;;6.00;99.90;;;;;;6105397;23;20284;-79
2021/12/04 08:46:59;;;;;;;17.63;12.53;;;6.00;99.90;;;;;;6092633;23;20594;-81
2021/12/04 08:49:31;;;;;;;17.97;12.77;;;6.10;99.90;;;;;;6108292;23;20267;-78
2021/12/04 08:51:57;;;;;;;17.10;12.53;;;6.00;99.90;;;;;;6110648;23;20599;-80
2021/12/04 08:54:23;;;;;;;17.70;12.67;;;6.00;99.90;;;;;;6108685;23;21194;-79
2021/12/04 08:56:51;;;;;;;16.60;11.80;;;6.00;99.90;;;;;;6107504;23;20591;-79
2021/12/04 08:59:17;;;;;;;15.07;11.00;;;5.90;99.90;;;;;;6106331;23;20405;-78
2021/12/04 09:01:44;;;;;;;15.77;11.40;;;5.90;99.90;;;;;;6108807;23;20545;-79
2021/12/04 09:04:26;;;;;;;18.03;12.73;;;5.90;99.90;;;;;;6109204;23;20281;-80
2021/12/04 09:06:54;;;;;;;18.40;12.00;;;6.00;99.90;;;;;;6105759;23;20591;-80
2021/12/04 09:09:20;;;;;;;17.77;12.10;;;6.00;99.90;;;;;;6084760;23;20607;-82
2021/12/04 09:11:56;;;;;;;16.10;12.40;;;6.00;99.90;;;;;;6106800;23;20562;-79
2021/12/04 09:14:24;;;;;;;16.40;12.03;;;6.00;99.90;;;;;;6105845;23;20598;-79
2021/12/04 09:16:53;;;;;;;16.23;11.77;;;6.10;99.90;;;;;;6102879;23;20590;-78
2021/12/04 09:19:21;;;;;;;15.37;12.70;;;6.10;99.90;;;;;;6106280;23;20606;-80
2021/12/04 09:21:47;;;;;;;17.67;11.67;;;6.20;99.90;;;;;;6080827;23;20641;-79
2021/12/04 09:24:15;;;;;;;15.17;11.20;;;6.20;99.90;;;;;;6099301;23;20547;-78
2021/12/04 09:26:55;;;;;;;15.40;11.50;;;6.30;99.90;;;;;;6101825;23;20206;-79
2021/12/04 09:29:39;;;;;;;15.50;12.27;;;6.30;99.90;;;;;;6080479;23;20640;-81
2021/12/04 09:32:36;;;;;;;17.30;11.50;;;6.30;99.90;;;;;;6108921;23;20516;-79
2021/12/04 09:59:14;;;;;;;19.97;13.70;;;6.30;99.90;;;;;;6107783;23;20886;-82
2021/12/04 10:16:46;;;;;;;18.90;13.73;;;6.30;99.90;;;;;;6109451;23;20633;-80
2021/12/04 10:33:18;;;;;;;16.03;11.03;;;6.20;99.90;;;;;;6106468;23;20510;-80
2021/12/04 10:35:46;;;;;;;17.27;11.97;;;6.10;99.90;;;;;;6106292;23;20527;-81
2021/12/04 10:38:24;;;;;;;17.60;11.90;;;6.10;99.90;;;;;;6107525;23;20749;-79
2021/12/04 10:40:51;;;;;;;16.63;12.03;;;6.20;99.90;;;;;;6106320;23;20833;-79
2021/12/04 10:43:23;;;;;;;16.37;11.90;;;6.20;99.90;;;;;;6109420;23;20769;-79
2021/12/04 10:46:01;;;;;;;15.87;11.90;;;6.20;99.90;;;;;;6104983;23;20508;-80
2021/12/04 10:48:33;;;;;;;16.87;11.40;;;6.30;99.90;;;;;;6106945;23;20626;-79
2021/12/04 10:51:21;;;;;;;16.40;11.97;;;6.30;99.90;;;;;;6106680;23;20631;-81
2021/12/04 10:53:49;;;;;;;17.30;12.17;;;6.20;99.90;;;;;;6103796;23;20648;-78
2021/12/04 10:56:52;;;;;;;17.33;13.20;;;6.20;99.90;;;;;;6081669;23;20673;-78
2021/12/04 11:37:21;;;;;;;14.27;11.07;;;6.40;99.90;;;;;;6085224;23;20602;-79
2021/12/04 11:40:05;;;;;;;16.80;10.90;;;6.40;99.90;;;;;;6080220;23;20571;-78
2021/12/04 11:42:38;;;;;;;13.37;10.30;;;6.50;99.90;;;;;;6075418;23;20560;-81
2021/12/04 11:45:16;;;;;;;12.43;9.37;;;6.40;99.90;;;;;;6077277;23;20500;-78
2021/12/04 11:47:46;;;;;;;13.10;10.33;;;6.50;99.90;;;;;;6073731;23;20583;-79
2021/12/04 11:50:22;;;;;;;15.07;10.87;;;6.50;99.90;;;;;;6076566;23;20563;-81
2021/12/04 11:52:51;;;;;;;16.20;10.93;;;6.50;99.90;;;;;;6071501;23;20567;-80
2021/12/04 11:55:20;;;;;;;14.97;10.53;;;6.50;99.90;;;;;;6080551;23;20599;-78
2021/12/04 11:57:47;;;;;;;15.73;11.60;;;6.50;99.90;;;;;;6102007;23;20591;-80
2021/12/04 12:00:26;;;;;;;15.60;10.40;;;6.50;99.90;;;;;;6075469;23;21201;-81
2021/12/04 12:03:15;;;;;;;15.43;10.60;;;6.50;99.90;;;;;;6078009;23;20552;-80
2021/12/04 12:05:50;;;;;;;14.63;10.70;;;6.50;99.90;;;;;;6077789;23;20521;-80
2021/12/04 12:08:26;;;;;;;15.27;11.07;;;6.50;99.90;;;;;;6103636;23;20625;-80
2021/12/04 12:10:57;;;;;;;15.30;11.23;;;6.50;99.90;;;;;;6078783;23;20957;-80
2021/12/04 12:13:39;;;;;;;13.27;11.63;;;6.50;99.90;;;;;;6081097;23;20516;-79
2021/12/04 12:16:30;;;;;;;14.83;11.40;;;6.50;99.90;;;;;;6079296;23;20595;-80
2021/12/04 12:18:58;;;;;;;14.53;10.60;;;6.60;99.90;;;;;;6078295;23;20947;-81
2021/12/04 12:21:33;;;;;;;19.23;11.60;;;6.60;99.90;;;;;;6078778;23;20934;-82
2021/12/04 12:33:16;;;;;;;17.33;12.57;;;6.50;99.90;;;;;;6074079;23;20598;-81
2021/12/04 12:36:09;;;;;;;15.27;11.40;;;6.40;99.90;;;;;;6053730;23;20668;-82
2021/12/04 12:38:54;;;;;;;16.93;11.70;;;6.50;99.90;;;;;;6106283;23;20598;-81
2021/12/04 12:41:40;;;;;;;14.57;10.80;;;6.50;99.90;;;;;;6109687;23;20511;-81
2021/12/04 12:44:11;;;;;;;17.30;11.40;;;6.50;99.90;;;;;;6107603;23;20603;-88
2021/12/04 12:46:50;;;;;;;19.87;12.43;;;6.50;99.90;;;;;;6110246;23;20583;-80
2021/12/04 12:49:34;;;;;;;18.97;12.10;;;6.40;99.90;;;;;;6111046;23;20662;-81
2021/12/04 12:52:18;;;;;;;18.40;13.10;;;6.40;99.90;;;;;;6110295;23;20523;-82
2021/12/04 12:54:53;;;;;;;14.53;11.30;;;6.40;99.90;;;;;;6105173;23;20520;-80
2021/12/04 12:57:26;;;;;;;15.03;11.30;;;6.40;99.90;;;;;;6109332;23;20582;-81
2021/12/04 13:11:48;;;;;;;13.17;10.97;;;6.30;99.90;;;;;;6108277;23;20578;-81
2021/12/04 13:14:30;;;;;;;13.20;10.23;;;6.30;99.90;;;;;;6106102;23;20638;-79
2021/12/04 13:17:31;;;;;;;14.80;10.80;;;6.40;99.90;;;;;;6106990;23;20593;-81
2021/12/04 13:19:57;;;;;;;15.13;11.80;;;6.40;99.90;;;;;;6105150;23;20652;-79
2021/12/04 13:22:32;;;;;;;15.83;11.67;;;6.40;99.90;;;;;;6104000;23;20634;-78
2021/12/04 13:25:01;;;;;;;15.90;11.63;;;6.40;99.90;;;;;;6126620;23;20641;-78
2021/12/04 13:30:19;;;;;;;15.20;11.10;;;6.40;99.90;;;;;;6105082;23;20634;-80
2021/12/04 13:32:46;;;;;;;14.70;11.30;;;6.50;99.90;;;;;;6105277;23;20587;-84
2021/12/04 13:35:21;;;;;;;16.00;11.73;;;6.50;99.90;;;;;;6104651;23;20578;-82
2021/12/04 13:37:49;;;;;;;19.37;13.77;;;6.50;99.90;;;;;;6104443;23;20599;-80
2021/12/04 13:40:19;;;;;;;15.63;12.20;;;6.50;99.90;;;;;;6105477;23;20551;-81
2021/12/04 13:42:46;;;;;;;16.20;12.10;;;6.60;99.90;;;;;;6105380;23;20579;-81
2021/12/04 13:45:22;;;;;;;18.07;12.67;;;6.60;99.90;;;;;;6105938;23;20667;-88
2021/12/04 13:47:53;;;;;;;17.30;12.67;;;6.60;99.90;;;;;;6104291;23;21034;-82
2021/12/04 13:52:54;;;;;;;15.90;11.57;;;6.50;99.90;;;;;;6118975;23;20519;-83
2021/12/04 13:55:24;;;;;;;15.67;11.77;;;6.50;99.90;;;;;;6105816;23;20571;-90
2021/12/04 13:57:54;;;;;;;14.03;10.80;;;6.50;99.90;;;;;;6105618;23;20599;-85
2021/12/04 14:00:21;;;;;;;17.50;12.17;;;6.60;99.90;;;;;;6103664;23;20991;-84
2021/12/04 14:02:46;;;;;;;16.93;12.10;;;6.50;99.90;;;;;;6105143;23;20599;-81
2021/12/04 14:05:21;;;;;;;15.40;12.00;;;6.40;99.90;;;;;;6101330;23;20554;-79
2021/12/04 14:08:02;;;;;;;16.13;12.00;;;6.40;99.90;;;;;;6091367;23;20700;-79
2021/12/04 14:10:32;;;;;;;21.00;12.17;;;6.40;99.90;;;;;;6099028;23;20567;-79
2021/12/04 14:13:00;;;;;;;17.00;11.73;;;6.40;99.90;;;;;;6097798;23;20665;-79
2021/12/04 14:15:27;;;;;;;15.23;11.37;;;6.40;99.90;;;;;;6099580;23;20963;-80
2021/12/04 14:18:02;;;;;;;15.80;11.07;;;6.40;99.90;;;;;;6101471;23;21116;-78
2021/12/04 14:20:29;;;;;;;14.70;11.67;;;6.40;99.90;;;;;;6098927;23;20862;-80
2021/12/04 14:22:56;;;;;;;12.83;10.10;;;6.40;99.90;;;;;;6107764;23;20674;-81
2021/12/04 14:25:24;;;;;;;13.10;10.30;;;6.40;99.90;;;;;;6104302;23;20554;-80
2021/12/04 14:27:52;;;;;;;13.53;10.03;;;6.40;99.90;;;;;;6105015;23;20609;-79
2021/12/04 14:30:25;;;;;;;13.27;10.20;;;6.40;99.90;;;;;;6105704;23;20551;-80
2021/12/04 14:32:55;;;;;;;12.93;10.47;;;6.50;99.90;;;;;;6106467;23;20586;-80
2021/12/04 14:35:30;;;;;;;12.60;10.03;;;6.50;99.90;;;;;;6100844;23;20569;-78
2021/12/04 14:38:01;;;;;;;12.13;9.67;;;6.20;99.90;;;;;;6100633;23;20681;-80
2021/12/04 14:40:46;;;;;;;12.20;9.60;;;6.50;99.90;;;;;;6103797;23;20499;-80
2021/12/04 14:43:16;;;;;;;10.23;8.80;;;6.50;99.90;;;;;;6099825;23;20666;-81
2021/12/04 14:45:44;;;;;;;9.60;8.27;;;6.50;99.90;;;;;;6127823;23;20585;-80
2021/12/04 14:48:16;;;;;;;10.30;8.30;;;6.50;99.90;;;;;;6106270;23;20578;-79
2021/12/04 14:50:48;;;;;;;10.40;8.40;;;6.50;99.90;;;;;;6129912;23;20767;-82
2021/12/04 14:53:21;;;;;;;11.10;8.67;;;6.50;99.90;;;;;;6132763;23;20578;-81
2021/12/04 14:55:51;;;;;;;10.47;8.60;;;6.50;99.90;;;;;;6108724;23;20574;-84
2021/12/04 14:58:21;;;;;;;10.17;8.50;;;6.50;99.90;;;;;;6105637;23;20681;-77
2021/12/04 15:00:56;;;;;;;12.33;8.40;;;6.40;99.90;;;;;;6100110;23;20890;-80
2021/12/04 15:03:31;;;;;;;9.80;8.43;;;6.40;99.90;;;;;;6100144;23;20618;-78
2021/12/04 15:05:59;;;;;;;11.63;8.50;;;6.30;99.90;;;;;;6097238;23;20926;-78
2021/12/04 15:08:28;;;;;;;12.00;9.50;;;6.30;99.90;;;;;;6121632;23;20590;-79
2021/12/04 15:11:01;;;;;;;14.07;9.30;;;6.40;99.90;;;;;;6097780;23;20878;-79
2021/12/04 15:13:30;;;;;;;12.00;9.50;;;6.40;99.90;;;;;;6121566;23;20574;-80
2021/12/04 15:16:03;;;;;;;13.07;9.50;;;6.40;99.90;;;;;;6125567;23;20595;-79
2021/12/04 15:18:36;;;;;;;14.50;10.40;;;6.40;99.90;;;;;;6102006;23;20594;-81
2021/12/04 15:21:10;;;;;;;17.13;11.00;;;6.40;99.90;;;;;;6102575;23;20562;-80
2021/12/04 15:23:39;;;;;;;13.63;10.30;;;6.50;99.90;;;;;;6104858;23;21152;-79
2021/12/04 15:26:17;;;;;;;15.97;10.77;;;6.40;99.90;;;;;;6104259;23;20598;-80
2021/12/04 15:28:47;;;;;;;13.20;10.13;;;6.80;99.90;;;;;;6106014;23;20610;-82
2021/12/04 15:31:24;;;;;;;13.33;10.30;;;6.50;99.90;;;;;;6104134;23;20661;-80
2021/12/04 15:33:59;;;;;;;14.17;11.70;;;6.40;99.90;;;;;;6101527;23;20678;-81
2021/12/04 15:36:27;;;;;;;13.70;9.80;;;6.40;99.90;;;;;;6102969;23;20598;-83
2021/12/04 15:38:55;;;;;;;13.97;10.73;;;6.40;99.90;;;;;;6103638;23;20575;-79
2021/12/04 15:52:58;;;;;;;12.77;9.30;;;6.30;99.90;;;;;;6101809;23;20503;-78
2021/12/04 15:55:29;;;;;;;13.47;10.70;;;6.20;99.90;;;;;;6104183;23;20532;-80
2021/12/04 15:57:59;;;;;;;12.20;9.20;;;6.30;99.90;;;;;;6101984;23;20821;-79
2021/12/04 16:00:32;;;;;;;12.37;9.20;;;6.20;99.90;;;;;;6105351;23;20519;-80
2021/12/04 16:03:04;;;;;;;10.70;9.00;;;6.30;99.90;;;;;;6104677;23;20562;-78
2021/12/04 16:05:38;;;;;;;10.33;9.10;;;6.30;99.90;;;;;;6103083;23;20666;-76
2021/12/04 16:08:07;;;;;;;11.43;8.77;;;6.30;99.90;;;;;;6101301;23;20595;-80
2021/12/04 16:10:37;;;;;;;10.73;9.07;;;6.30;99.90;;;;;;6130576;23;20666;-78
2021/12/04 16:13:08;;;;;;;10.93;9.63;;;6.30;99.90;;;;;;6125497;23;20991;-78
2021/12/04 16:15:34;;;;;;;11.03;9.60;;;6.20;99.90;;;;;;6105283;23;20571;-78
2021/12/04 16:18:01;;;;;;;10.43;8.80;;;6.30;99.90;;;;;;6105637;23;20627;-78
2021/12/04 16:20:30;;;;;;;10.73;8.90;;;6.30;99.90;;;;;;6128696;23;20603;-82